createdAt,value
2017-02-08T00:01:09.206Z,1011.13
2017-02-08T00:02:19.413Z,1011.1
2017-02-08T00:03:28.716Z,1011.09
2017-02-08T00:04:38.438Z,1011.15
2017-02-08T00:05:48.156Z,1011.11
2017-02-08T00:06:57.448Z,1011.16
2017-02-08T00:08:07.667Z,1011.21
2017-02-08T00:09:17.396Z,1011.24
2017-02-08T00:10:26.679Z,1011.26
2017-02-08T00:11:37.285Z,1011.27
2017-02-08T00:12:47.006Z,1011.24
2017-02-08T00:13:56.351Z,1011.31
2017-02-08T00:15:06.942Z,1011.31
2017-02-08T00:16:16.667Z,1011.24
2017-02-08T00:17:25.953Z,1011.28
2017-02-08T00:18:36.114Z,1011.31
2017-02-08T00:19:45.557Z,1011.31
2017-02-08T00:20:56.599Z,1011.28
2017-02-08T00:22:06.755Z,1011.33
2017-02-08T00:23:16.914Z,1011.26
2017-02-08T00:24:26.632Z,1011.25
2017-02-08T00:25:36.407Z,1011.29
2017-02-08T00:26:46.583Z,1011.28
2017-02-08T00:27:55.878Z,1011.28
2017-02-08T00:29:05.160Z,1011.34
2017-02-08T00:30:14.876Z,1011.32
2017-02-08T00:31:24.206Z,1011.36
2017-02-08T00:32:33.922Z,1011.3
2017-02-08T00:33:44.519Z,1011.33
2017-02-08T00:34:54.685Z,1011.29
2017-02-08T00:36:04.839Z,1011.33
2017-02-08T00:37:14.600Z,1011.3
2017-02-08T00:38:24.756Z,1011.3
2017-02-08T00:39:34.913Z,1011.35
2017-02-08T00:40:45.082Z,1011.38
2017-02-08T00:41:54.812Z,1011.32
2017-02-08T00:43:04.582Z,1011.33
2017-02-08T00:44:14.314Z,1011.35
2017-02-08T00:45:24.035Z,1011.34
2017-02-08T00:46:34.628Z,1011.38
2017-02-08T00:47:45.227Z,1011.37
2017-02-08T00:48:55.432Z,1011.4
2017-02-08T00:50:05.152Z,1011.41
2017-02-08T00:51:15.298Z,1011.42
2017-02-08T00:52:24.574Z,1011.42
2017-02-08T00:53:34.296Z,1011.39
2017-02-08T00:54:44.939Z,1011.39
2017-02-08T00:55:55.089Z,1011.38
2017-02-08T00:57:05.254Z,1011.35
2017-02-08T00:58:15.852Z,1011.34
2017-02-08T00:59:26.017Z,1011.39
2017-02-08T01:00:36.230Z,1011.43
2017-02-08T01:01:46.395Z,1011.38
2017-02-08T01:02:55.680Z,1011.39
2017-02-08T01:04:05.846Z,1011.43
2017-02-08T01:05:16.891Z,1011.44
2017-02-08T01:06:26.670Z,1011.44
2017-02-08T01:07:36.387Z,1011.4
2017-02-08T01:08:45.678Z,1011.37
2017-02-08T01:09:55.408Z,1011.35
2017-02-08T01:11:06.007Z,1011.35
2017-02-08T01:12:15.344Z,1011.38
2017-02-08T01:13:25.503Z,1011.35
2017-02-08T01:14:35.217Z,1011.37
2017-02-08T01:15:44.940Z,1011.37
2017-02-08T01:16:55.095Z,1011.34
2017-02-08T01:18:05.752Z,1011.36
2017-02-08T01:19:15.490Z,1011.37
2017-02-08T01:20:26.090Z,1011.41
2017-02-08T01:21:35.807Z,1011.37
2017-02-08T01:22:45.530Z,1011.38
2017-02-08T01:23:55.301Z,1011.37
2017-02-08T01:25:05.032Z,1011.38
2017-02-08T01:26:14.756Z,1011.39
2017-02-08T01:27:24.937Z,1011.4
2017-02-08T01:28:34.663Z,1011.45
2017-02-08T01:29:43.999Z,1011.41
2017-02-08T01:30:53.753Z,1011.42
2017-02-08T01:32:04.357Z,1011.39
2017-02-08T01:33:13.636Z,1011.41
2017-02-08T01:34:22.915Z,1011.36
2017-02-08T01:35:33.125Z,1011.39
2017-02-08T01:36:42.858Z,1011.41
2017-02-08T01:37:53.455Z,1011.44
2017-02-08T01:39:03.176Z,1011.4
2017-02-08T01:40:12.459Z,1011.42
2017-02-08T01:41:21.795Z,1011.49
2017-02-08T01:42:31.509Z,1011.4
2017-02-08T01:43:41.234Z,1011.4
2017-02-08T01:44:50.947Z,1011.37
2017-02-08T01:46:00.232Z,1011.37
2017-02-08T01:47:10.434Z,1011.39
2017-02-08T01:48:19.720Z,1011.37
2017-02-08T01:49:29.879Z,1011.4
2017-02-08T01:50:39.604Z,1011.41
2017-02-08T01:51:49.351Z,1011.4
2017-02-08T01:52:59.126Z,1011.44
2017-02-08T01:54:09.279Z,1011.39
2017-02-08T01:55:19.000Z,1011.39
2017-02-08T01:56:29.153Z,1011.45
2017-02-08T01:57:38.442Z,1011.43
2017-02-08T01:58:48.647Z,1011.49
2017-02-08T01:59:57.941Z,1011.46
2017-02-08T02:01:07.662Z,1011.4
2017-02-08T02:02:17.379Z,1011.5
2017-02-08T02:03:27.984Z,1011.52
2017-02-08T02:04:38.193Z,1011.51
2017-02-08T02:05:47.489Z,1011.43
2017-02-08T02:06:56.781Z,1011.49
2017-02-08T02:08:06.064Z,1011.51
2017-02-08T02:09:17.093Z,1011.5
2017-02-08T02:10:26.866Z,1011.53
2017-02-08T02:11:37.027Z,1011.55
2017-02-08T02:12:46.748Z,1011.53
2017-02-08T02:13:56.059Z,1011.51
2017-02-08T02:15:05.783Z,1011.5
2017-02-08T02:16:15.557Z,1011.47
2017-02-08T02:17:24.842Z,1011.51
2017-02-08T02:18:35.002Z,1011.56
2017-02-08T02:19:44.727Z,1011.49
2017-02-08T02:20:54.902Z,1011.52
2017-02-08T02:22:04.246Z,1011.56
2017-02-08T02:23:14.859Z,1011.51
2017-02-08T02:24:24.592Z,1011.52
2017-02-08T02:25:34.782Z,1011.53
2017-02-08T02:26:44.510Z,1011.46
2017-02-08T02:27:54.711Z,1011.47
2017-02-08T02:29:04.433Z,1011.46
2017-02-08T02:30:14.155Z,1011.39
2017-02-08T02:31:23.873Z,1011.44
2017-02-08T02:32:33.157Z,1011.38
2017-02-08T02:33:42.935Z,1011.45
2017-02-08T02:34:53.532Z,1011.45
2017-02-08T02:36:02.819Z,1011.44
2017-02-08T02:37:12.551Z,1011.42
2017-02-08T02:38:22.270Z,1011.38
2017-02-08T02:39:32.486Z,1011.41
2017-02-08T02:40:42.650Z,1011.42
2017-02-08T02:41:52.371Z,1011.4
2017-02-08T02:43:02.528Z,1011.45
2017-02-08T02:44:12.254Z,1011.39
2017-02-08T02:45:21.597Z,1011.45
2017-02-08T02:46:31.322Z,1011.44
2017-02-08T02:47:41.047Z,1011.45
2017-02-08T02:48:50.766Z,1011.45
2017-02-08T02:50:00.485Z,1011.42
2017-02-08T02:51:10.295Z,1011.44
2017-02-08T02:52:20.454Z,1011.42
2017-02-08T02:53:30.176Z,1011.44
2017-02-08T02:54:40.785Z,1011.44
2017-02-08T02:55:50.502Z,1011.42
2017-02-08T02:57:00.720Z,1011.46
2017-02-08T02:58:10.885Z,1011.41
2017-02-08T02:59:20.619Z,1011.51
2017-02-08T03:00:30.783Z,1011.5
2017-02-08T03:01:40.946Z,1011.52
2017-02-08T03:02:50.715Z,1011.53
2017-02-08T03:04:00.883Z,1011.5
2017-02-08T03:05:10.604Z,1011.49
2017-02-08T03:06:20.329Z,1011.49
2017-02-08T03:07:30.495Z,1011.45
2017-02-08T03:08:40.265Z,1011.51
2017-02-08T03:09:49.540Z,1011.51
2017-02-08T03:10:59.266Z,1011.53
2017-02-08T03:12:09.422Z,1011.57
2017-02-08T03:13:20.456Z,1011.53
2017-02-08T03:14:30.221Z,1011.5
2017-02-08T03:15:40.376Z,1011.47
2017-02-08T03:16:50.096Z,1011.49
2017-02-08T03:17:59.819Z,1011.49
2017-02-08T03:19:09.538Z,1011.53
2017-02-08T03:20:19.959Z,1011.48
2017-02-08T03:21:29.684Z,1011.52
2017-02-08T03:22:40.282Z,1011.54
2017-02-08T03:23:50.447Z,1011.5
2017-02-08T03:25:01.042Z,1011.55
2017-02-08T03:26:10.408Z,1011.51
2017-02-08T03:27:20.128Z,1011.55
2017-02-08T03:28:29.860Z,1011.61
2017-02-08T03:29:39.589Z,1011.61
2017-02-08T03:30:49.318Z,1011.69
2017-02-08T03:31:58.648Z,1011.59
2017-02-08T03:33:08.806Z,1011.61
2017-02-08T03:34:18.534Z,1011.64
2017-02-08T03:35:29.142Z,1011.61
2017-02-08T03:36:38.422Z,1011.67
2017-02-08T03:37:47.757Z,1011.6
2017-02-08T03:38:57.480Z,1011.72
2017-02-08T03:40:07.203Z,1011.72
2017-02-08T03:41:16.932Z,1011.76
2017-02-08T03:42:26.659Z,1011.7
2017-02-08T03:43:36.000Z,1011.75
2017-02-08T03:44:45.729Z,1011.76
2017-02-08T03:45:55.451Z,1011.74
2017-02-08T03:47:06.043Z,1011.76
2017-02-08T03:48:16.208Z,1011.79
2017-02-08T03:49:26.853Z,1011.79
2017-02-08T03:50:36.578Z,1011.82
2017-02-08T03:51:46.339Z,1011.88
2017-02-08T03:52:55.625Z,1011.9
2017-02-08T03:54:06.663Z,1011.88
2017-02-08T03:55:16.879Z,1011.88
2017-02-08T03:56:27.917Z,1011.95
2017-02-08T03:57:37.638Z,1011.95
2017-02-08T03:58:46.922Z,1011.93
2017-02-08T03:59:57.074Z,1011.94
2017-02-08T04:01:06.409Z,1011.92
2017-02-08T04:02:15.699Z,1011.97
2017-02-08T04:03:25.859Z,1011.99
2017-02-08T04:04:35.579Z,1012.01
2017-02-08T04:05:45.298Z,1012.04
2017-02-08T04:06:55.663Z,1012.11
2017-02-08T04:08:05.834Z,1012.07
2017-02-08T04:09:15.993Z,1012.08
2017-02-08T04:10:26.151Z,1012.11
2017-02-08T04:11:35.868Z,1012.14
2017-02-08T04:12:45.645Z,1012.07
2017-02-08T04:13:55.365Z,1012.09
2017-02-08T04:15:05.088Z,1012.08
2017-02-08T04:16:14.813Z,1012.08
2017-02-08T04:17:24.536Z,1012.07
2017-02-08T04:18:33.865Z,1012.08
2017-02-08T04:19:43.165Z,1012.1
2017-02-08T04:20:53.753Z,1012.07
2017-02-08T04:22:04.355Z,1012.12
2017-02-08T04:23:14.089Z,1012.15
2017-02-08T04:24:23.855Z,1012.14
2017-02-08T04:25:34.000Z,1012.12
2017-02-08T04:26:43.731Z,1012.1
2017-02-08T04:27:53.458Z,1012.09
2017-02-08T04:29:04.066Z,1012.1
2017-02-08T04:30:14.380Z,1012.07
2017-02-08T04:31:24.545Z,1012.12
2017-02-08T04:32:34.292Z,1012.1
2017-02-08T04:33:44.024Z,1012.13
2017-02-08T04:34:53.752Z,1012.17
2017-02-08T04:36:03.969Z,1012.22
2017-02-08T04:37:13.256Z,1012.18
2017-02-08T04:38:22.981Z,1012.17
2017-02-08T04:39:32.693Z,1012.17
2017-02-08T04:40:42.015Z,1012.19
2017-02-08T04:41:51.495Z,1012.2
2017-02-08T04:43:01.229Z,1012.19
2017-02-08T04:44:10.962Z,1012.17
2017-02-08T04:45:21.131Z,1012.21
2017-02-08T04:46:31.301Z,1012.17
2017-02-08T04:47:41.181Z,1012.19
2017-02-08T04:48:51.784Z,1012.24
2017-02-08T04:50:01.501Z,1012.25
2017-02-08T04:51:11.225Z,1012.26
2017-02-08T04:52:20.510Z,1012.25
2017-02-08T04:53:30.735Z,1012.24
2017-02-08T04:54:40.036Z,1012.26
2017-02-08T04:55:50.199Z,1012.29
2017-02-08T04:56:59.919Z,1012.34
2017-02-08T04:58:09.644Z,1012.39
2017-02-08T04:59:20.301Z,1012.36
2017-02-08T05:00:30.028Z,1012.37
2017-02-08T05:01:39.307Z,1012.31
2017-02-08T05:02:49.474Z,1012.41
2017-02-08T05:03:58.755Z,1012.37
2017-02-08T05:05:08.087Z,1012.36
2017-02-08T05:06:18.248Z,1012.41
2017-02-08T05:07:27.542Z,1012.41
2017-02-08T05:08:37.735Z,1012.4
2017-02-08T05:09:48.331Z,1012.41
2017-02-08T05:10:58.113Z,1012.44
2017-02-08T05:12:08.262Z,1012.47
2017-02-08T05:13:17.551Z,1012.48
2017-02-08T05:14:28.161Z,1012.49
2017-02-08T05:15:37.884Z,1012.48
2017-02-08T05:16:47.656Z,1012.51
2017-02-08T05:17:57.382Z,1012.49
2017-02-08T05:19:07.097Z,1012.56
2017-02-08T05:20:16.818Z,1012.55
2017-02-08T05:21:26.542Z,1012.56
2017-02-08T05:22:35.881Z,1012.51
2017-02-08T05:23:46.035Z,1012.52
2017-02-08T05:24:55.755Z,1012.57
2017-02-08T05:26:05.036Z,1012.58
2017-02-08T05:27:14.314Z,1012.58
2017-02-08T05:28:24.080Z,1012.61
2017-02-08T05:29:33.793Z,1012.62
2017-02-08T05:30:43.521Z,1012.61
2017-02-08T05:31:53.242Z,1012.64
2017-02-08T05:33:02.524Z,1012.65
2017-02-08T05:34:12.289Z,1012.67
2017-02-08T05:35:21.578Z,1012.69
2017-02-08T05:36:31.299Z,1012.73
2017-02-08T05:37:41.458Z,1012.73
2017-02-08T05:38:50.739Z,1012.71
2017-02-08T05:40:00.955Z,1012.72
2017-02-08T05:41:10.684Z,1012.7
2017-02-08T05:42:20.841Z,1012.71
2017-02-08T05:43:31.446Z,1012.72
2017-02-08T05:44:42.051Z,1012.69
2017-02-08T05:45:52.705Z,1012.76
2017-02-08T05:47:02.870Z,1012.71
2017-02-08T05:48:13.039Z,1012.7
2017-02-08T05:49:23.200Z,1012.7
2017-02-08T05:50:32.924Z,1012.7
2017-02-08T05:51:42.260Z,1012.7
2017-02-08T05:52:51.544Z,1012.7
2017-02-08T05:54:01.274Z,1012.73
2017-02-08T05:55:10.998Z,1012.81
2017-02-08T05:56:20.717Z,1012.78
2017-02-08T05:57:30.489Z,1012.81
2017-02-08T05:58:41.520Z,1012.84
2017-02-08T05:59:51.291Z,1012.88
2017-02-08T06:01:01.021Z,1012.87
2017-02-08T06:02:10.307Z,1012.86
2017-02-08T06:03:20.084Z,1012.88
2017-02-08T06:04:29.810Z,1012.89
2017-02-08T06:05:39.529Z,1012.92
2017-02-08T06:06:49.690Z,1012.91
2017-02-08T06:07:58.971Z,1012.97
2017-02-08T06:09:09.192Z,1012.95
2017-02-08T06:10:19.360Z,1012.94
2017-02-08T06:11:28.647Z,1012.97
2017-02-08T06:12:38.377Z,1012.99
2017-02-08T06:13:48.545Z,1012.99
2017-02-08T06:14:58.319Z,1012.99
2017-02-08T06:16:08.044Z,1012.94
2017-02-08T06:17:17.766Z,1012.94
2017-02-08T06:18:27.488Z,1012.98
2017-02-08T06:19:37.212Z,1012.94
2017-02-08T06:20:46.552Z,1012.99
2017-02-08T06:21:57.166Z,1013.02
2017-02-08T06:23:07.323Z,1013.01
2017-02-08T06:24:17.484Z,1013.01
2017-02-08T06:25:27.211Z,1013
2017-02-08T06:26:36.541Z,1013.04
2017-02-08T06:27:46.260Z,1012.95
2017-02-08T06:28:56.417Z,1013.05
2017-02-08T06:30:06.153Z,1013.08
2017-02-08T06:31:16.476Z,1013.08
2017-02-08T06:32:26.687Z,1013.13
2017-02-08T06:33:37.282Z,1013.17
2017-02-08T06:34:47.868Z,1013.13
2017-02-08T06:35:57.594Z,1013.13
2017-02-08T06:37:07.350Z,1013.15
2017-02-08T06:38:17.555Z,1013.18
2017-02-08T06:39:27.706Z,1013.19
2017-02-08T06:40:37.000Z,1013.16
2017-02-08T06:41:46.766Z,1013.21
2017-02-08T06:42:57.372Z,1013.27
2017-02-08T06:44:07.581Z,1013.25
2017-02-08T06:45:17.752Z,1013.37
2017-02-08T06:46:27.039Z,1013.32
2017-02-08T06:47:37.200Z,1013.32
2017-02-08T06:48:46.931Z,1013.33
2017-02-08T06:49:56.704Z,1013.35
2017-02-08T06:51:06.422Z,1013.41
2017-02-08T06:52:16.146Z,1013.45
2017-02-08T06:53:25.870Z,1013.4
2017-02-08T06:54:36.035Z,1013.41
2017-02-08T06:55:45.425Z,1013.4
2017-02-08T06:56:56.554Z,1013.43
2017-02-08T06:58:06.715Z,1013.39
2017-02-08T06:59:15.999Z,1013.43
2017-02-08T07:00:25.289Z,1013.39
2017-02-08T07:01:35.500Z,1013.41
2017-02-08T07:02:45.660Z,1013.47
2017-02-08T07:03:55.827Z,1013.42
2017-02-08T07:05:05.542Z,1013.42
2017-02-08T07:06:15.263Z,1013.44
2017-02-08T07:07:25.910Z,1013.48
2017-02-08T07:08:35.198Z,1013.47
2017-02-08T07:09:44.927Z,1013.49
2017-02-08T07:10:55.524Z,1013.49
2017-02-08T07:12:06.123Z,1013.51
2017-02-08T07:13:15.894Z,1013.52
2017-02-08T07:14:26.497Z,1013.47
2017-02-08T07:15:35.784Z,1013.56
2017-02-08T07:16:45.509Z,1013.59
2017-02-08T07:17:56.127Z,1013.6
2017-02-08T07:19:06.783Z,1013.59
2017-02-08T07:20:16.940Z,1013.66
2017-02-08T07:21:26.666Z,1013.61
2017-02-08T07:22:37.264Z,1013.66
2017-02-08T07:23:46.979Z,1013.61
2017-02-08T07:24:56.313Z,1013.66
2017-02-08T07:26:06.046Z,1013.6
2017-02-08T07:27:16.207Z,1013.68
2017-02-08T07:28:26.373Z,1013.68
2017-02-08T07:29:36.099Z,1013.66
2017-02-08T07:30:45.427Z,1013.71
2017-02-08T07:31:55.142Z,1013.72
2017-02-08T07:33:04.862Z,1013.67
2017-02-08T07:34:14.574Z,1013.77
2017-02-08T07:35:24.297Z,1013.76
2017-02-08T07:36:33.689Z,1013.76
2017-02-08T07:37:43.417Z,1013.73
2017-02-08T07:38:53.139Z,1013.77
2017-02-08T07:40:02.872Z,1013.76
2017-02-08T07:41:12.155Z,1013.79
2017-02-08T07:42:21.930Z,1013.82
2017-02-08T07:43:31.666Z,1013.75
2017-02-08T07:44:40.950Z,1013.77
2017-02-08T07:45:50.672Z,1013.81
2017-02-08T07:47:00.828Z,1013.82
2017-02-08T07:48:11.040Z,1013.85
2017-02-08T07:49:20.756Z,1013.82
2017-02-08T07:50:30.498Z,1013.82
2017-02-08T07:51:39.783Z,1013.86
2017-02-08T07:52:49.948Z,1013.85
2017-02-08T07:53:59.718Z,1013.81
2017-02-08T07:55:09.438Z,1013.82
2017-02-08T07:56:19.606Z,1013.85
2017-02-08T07:57:28.897Z,1013.83
2017-02-08T07:58:39.066Z,1013.88
2017-02-08T07:59:49.709Z,1013.9
2017-02-08T08:00:58.996Z,1013.88
2017-02-08T08:02:09.151Z,1013.88
2017-02-08T08:03:19.300Z,1013.9
2017-02-08T08:04:29.021Z,1013.91
2017-02-08T08:05:38.793Z,1013.93
2017-02-08T08:06:48.078Z,1013.94
2017-02-08T08:07:57.803Z,1013.91
2017-02-08T08:09:07.962Z,1013.93
2017-02-08T08:10:18.129Z,1013.93
2017-02-08T08:11:28.356Z,1013.93
2017-02-08T08:12:38.079Z,1013.92
2017-02-08T08:13:47.368Z,1013.98
2017-02-08T08:14:57.537Z,1013.98
2017-02-08T08:16:07.694Z,1014.02
2017-02-08T08:17:17.036Z,1014.04
2017-02-08T08:18:28.068Z,1014.01
2017-02-08T08:19:37.794Z,1014.04
2017-02-08T08:20:47.077Z,1014.08
2017-02-08T08:21:56.816Z,1014.13
2017-02-08T08:23:06.590Z,1014.11
2017-02-08T08:24:15.874Z,1014.09
2017-02-08T08:25:25.603Z,1014.04
2017-02-08T08:26:36.212Z,1014.07
2017-02-08T08:27:46.385Z,1014.05
2017-02-08T08:28:56.594Z,1014.07
2017-02-08T08:30:07.191Z,1014.05
2017-02-08T08:31:17.780Z,1014.05
2017-02-08T08:32:27.061Z,1014.05
2017-02-08T08:33:36.780Z,1014.1
2017-02-08T08:34:46.120Z,1014.11
2017-02-08T08:35:55.852Z,1014.11
2017-02-08T08:37:06.017Z,1014.14
2017-02-08T08:38:15.740Z,1014.13
2017-02-08T08:39:25.028Z,1014.15
2017-02-08T08:40:35.235Z,1014.18
2017-02-08T08:41:44.527Z,1014.16
2017-02-08T08:42:54.251Z,1014.24
2017-02-08T08:44:04.407Z,1014.21
2017-02-08T08:45:14.131Z,1014.24
2017-02-08T08:46:23.914Z,1014.21
2017-02-08T08:47:34.077Z,1014.25
2017-02-08T08:48:44.239Z,1014.26
2017-02-08T08:49:53.963Z,1014.25
2017-02-08T08:51:04.599Z,1014.21
2017-02-08T08:52:14.811Z,1014.23
2017-02-08T08:53:24.528Z,1014.24
2017-02-08T08:54:33.816Z,1014.22
2017-02-08T08:55:43.978Z,1014.27
2017-02-08T08:56:54.130Z,1014.23
2017-02-08T08:58:03.471Z,1014.22
2017-02-08T08:59:13.621Z,1014.22
2017-02-08T09:00:23.788Z,1014.22
2017-02-08T09:01:33.075Z,1014.19
2017-02-08T09:02:42.797Z,1014.16
2017-02-08T09:03:52.557Z,1014.23
2017-02-08T09:05:02.723Z,1014.23
2017-02-08T09:06:12.900Z,1014.22
2017-02-08T09:07:22.619Z,1014.24
2017-02-08T09:08:32.346Z,1014.23
2017-02-08T09:09:42.116Z,1014.25
2017-02-08T09:10:52.280Z,1014.26
2017-02-08T09:12:01.563Z,1014.28
2017-02-08T09:13:11.712Z,1014.27
2017-02-08T09:14:21.428Z,1014.33
2017-02-08T09:15:31.210Z,1014.33
2017-02-08T09:16:41.383Z,1014.29
2017-02-08T09:17:51.549Z,1014.29
2017-02-08T09:19:01.707Z,1014.31
2017-02-08T09:20:11.433Z,1014.32
2017-02-08T09:21:20.761Z,1014.34
2017-02-08T09:22:30.043Z,1014.38
2017-02-08T09:23:39.770Z,1014.38
2017-02-08T09:24:49.936Z,1014.4
2017-02-08T09:25:59.665Z,1014.38
2017-02-08T09:27:09.440Z,1014.46
2017-02-08T09:28:18.725Z,1014.4
2017-02-08T09:29:28.010Z,1014.43
2017-02-08T09:30:37.306Z,1014.46
2017-02-08T09:31:47.475Z,1014.46
2017-02-08T09:32:57.680Z,1014.51
2017-02-08T09:34:07.398Z,1014.49
2017-02-08T09:35:17.130Z,1014.49
2017-02-08T09:36:27.296Z,1014.51
2017-02-08T09:37:37.023Z,1014.53
2017-02-08T09:38:46.795Z,1014.55
2017-02-08T09:39:56.522Z,1014.59
2017-02-08T09:41:06.245Z,1014.6
2017-02-08T09:42:16.408Z,1014.64
2017-02-08T09:43:25.693Z,1014.67
2017-02-08T09:44:35.469Z,1014.69
2017-02-08T09:45:46.076Z,1014.73
2017-02-08T09:46:56.241Z,1014.73
2017-02-08T09:48:05.972Z,1014.78
2017-02-08T09:49:16.564Z,1014.7
2017-02-08T09:50:25.895Z,1014.74
2017-02-08T09:51:35.618Z,1014.73
2017-02-08T09:52:44.909Z,1014.77
2017-02-08T09:53:55.067Z,1014.76
2017-02-08T09:55:05.237Z,1014.8
2017-02-08T09:56:15.009Z,1014.8
2017-02-08T09:57:25.168Z,1014.84
2017-02-08T09:58:34.888Z,1014.84
2017-02-08T09:59:45.051Z,1014.82
2017-02-08T10:00:54.331Z,1014.84
2017-02-08T10:02:04.095Z,1014.85
2017-02-08T10:03:13.812Z,1014.88
2017-02-08T10:04:23.101Z,1014.82
2017-02-08T10:05:34.139Z,1014.79
2017-02-08T10:06:43.421Z,1014.81
2017-02-08T10:07:53.191Z,1014.81
2017-02-08T10:09:02.478Z,1014.84
2017-02-08T10:10:12.640Z,1014.86
2017-02-08T10:11:22.365Z,1014.9
2017-02-08T10:12:32.534Z,1014.92
2017-02-08T10:13:43.185Z,1014.94
2017-02-08T10:14:53.339Z,1014.9
2017-02-08T10:16:03.058Z,1014.96
2017-02-08T10:17:13.217Z,1014.93
2017-02-08T10:18:22.496Z,1015.01
2017-02-08T10:19:31.842Z,1015
2017-02-08T10:20:42.004Z,1014.99
2017-02-08T10:21:51.293Z,1014.97
2017-02-08T10:23:01.023Z,1014.99
2017-02-08T10:24:10.311Z,1015.02
2017-02-08T10:25:20.537Z,1015.04
2017-02-08T10:26:30.259Z,1015.08
2017-02-08T10:27:39.549Z,1015.08
2017-02-08T10:28:49.271Z,1015.13
2017-02-08T10:29:58.996Z,1015.1
2017-02-08T10:31:09.640Z,1015.12
2017-02-08T10:32:18.935Z,1015.12
2017-02-08T10:33:28.660Z,1015.07
2017-02-08T10:34:37.951Z,1015.09
2017-02-08T10:35:47.668Z,1015.13
2017-02-08T10:36:57.440Z,1015.09
2017-02-08T10:38:07.605Z,1015.04
2017-02-08T10:39:16.898Z,1015.06
2017-02-08T10:40:27.503Z,1015.06
2017-02-08T10:41:37.224Z,1015.09
2017-02-08T10:42:46.566Z,1015.1
2017-02-08T10:43:56.722Z,1015.07
2017-02-08T10:45:06.000Z,1015.1
2017-02-08T10:46:15.725Z,1015.08
2017-02-08T10:47:25.452Z,1015.14
2017-02-08T10:48:34.936Z,1015.09
2017-02-08T10:49:44.662Z,1015.13
2017-02-08T10:50:54.388Z,1015.13
2017-02-08T10:52:04.989Z,1015.08
2017-02-08T10:53:14.273Z,1015.13
2017-02-08T10:54:24.046Z,1015.09
2017-02-08T10:55:33.777Z,1015.09
2017-02-08T10:56:43.068Z,1015.03
2017-02-08T10:57:53.238Z,1015.04
2017-02-08T10:59:02.963Z,1015.07
2017-02-08T11:00:13.172Z,1015.08
2017-02-08T11:01:23.329Z,1015.08
2017-02-08T11:02:33.054Z,1015.07
2017-02-08T11:03:42.777Z,1015.07
2017-02-08T11:04:52.505Z,1015.09
2017-02-08T11:06:01.996Z,1015.09
2017-02-08T11:07:12.163Z,1015.1
2017-02-08T11:08:21.884Z,1015.07
2017-02-08T11:09:31.181Z,1015.09
2017-02-08T11:10:41.346Z,1015.08
2017-02-08T11:11:51.124Z,1015.09
2017-02-08T11:13:00.411Z,1015.1
2017-02-08T11:14:09.698Z,1015.08
2017-02-08T11:15:19.861Z,1015.13
2017-02-08T11:16:29.154Z,1015.1
2017-02-08T11:17:39.370Z,1015.11
2017-02-08T11:18:49.993Z,1015.12
2017-02-08T11:20:00.602Z,1015.13
2017-02-08T11:21:10.330Z,1015.12
2017-02-08T11:22:20.043Z,1015.11
2017-02-08T11:23:29.388Z,1015.1
2017-02-08T11:24:39.105Z,1015.1
2017-02-08T11:25:48.394Z,1015.09
2017-02-08T11:26:58.563Z,1015.11
2017-02-08T11:28:08.720Z,1015.1
2017-02-08T11:29:18.939Z,1015.09
2017-02-08T11:30:28.651Z,1015.15
2017-02-08T11:31:38.808Z,1015.13
2017-02-08T11:32:48.527Z,1015.16
2017-02-08T11:33:57.811Z,1015.21
2017-02-08T11:35:07.584Z,1015.21
2017-02-08T11:36:18.192Z,1015.16
2017-02-08T11:37:27.920Z,1015.18
2017-02-08T11:38:37.208Z,1015.2
2017-02-08T11:39:46.960Z,1015.21
2017-02-08T11:40:56.743Z,1015.21
2017-02-08T11:42:06.903Z,1015.2
2017-02-08T11:43:16.636Z,1015.23
2017-02-08T11:44:26.809Z,1015.26
2017-02-08T11:45:37.846Z,1015.2
2017-02-08T11:46:47.623Z,1015.22
2017-02-08T11:47:57.342Z,1015.29
2017-02-08T11:49:07.509Z,1015.23
2017-02-08T11:50:16.803Z,1015.27
2017-02-08T11:51:26.535Z,1015.24
2017-02-08T11:52:36.019Z,1015.25
2017-02-08T11:53:45.308Z,1015.26
2017-02-08T11:54:54.592Z,1015.28
2017-02-08T11:56:04.755Z,1015.33
2017-02-08T11:57:14.919Z,1015.3
2017-02-08T11:58:24.685Z,1015.33
2017-02-08T11:59:34.857Z,1015.33
2017-02-08T12:00:44.589Z,1015.34
2017-02-08T12:01:54.310Z,1015.36
2017-02-08T12:03:03.601Z,1015.34
2017-02-08T12:04:13.374Z,1015.32
2017-02-08T12:05:23.089Z,1015.31
2017-02-08T12:06:32.807Z,1015.32
2017-02-08T12:07:42.528Z,1015.31
2017-02-08T12:08:52.257Z,1015.31
2017-02-08T12:10:02.472Z,1015.28
2017-02-08T12:11:12.199Z,1015.34
2017-02-08T12:12:21.916Z,1015.34
2017-02-08T12:13:32.966Z,1015.41
2017-02-08T12:14:43.167Z,1015.35
2017-02-08T12:15:52.942Z,1015.39
2017-02-08T12:17:03.135Z,1015.41
2017-02-08T12:18:12.870Z,1015.41
2017-02-08T12:19:23.044Z,1015.4
2017-02-08T12:20:32.773Z,1015.43
2017-02-08T12:21:43.419Z,1015.46
2017-02-08T12:22:53.145Z,1015.5
2017-02-08T12:24:02.877Z,1015.5
2017-02-08T12:25:12.600Z,1015.46
2017-02-08T12:26:22.327Z,1015.47
2017-02-08T12:27:32.098Z,1015.45
2017-02-08T12:28:41.383Z,1015.5
2017-02-08T12:29:51.546Z,1015.46
2017-02-08T12:31:02.155Z,1015.51
2017-02-08T12:32:11.917Z,1015.53
2017-02-08T12:33:22.125Z,1015.51
2017-02-08T12:34:32.292Z,1015.54
2017-02-08T12:35:41.580Z,1015.53
2017-02-08T12:36:51.305Z,1015.51
2017-02-08T12:38:01.874Z,1015.51
2017-02-08T12:39:11.227Z,1015.5
2017-02-08T12:40:20.518Z,1015.5
2017-02-08T12:41:30.242Z,1015.47
2017-02-08T12:42:40.439Z,1015.53
2017-02-08T12:43:50.162Z,1015.54
2017-02-08T12:44:59.498Z,1015.52
2017-02-08T12:46:09.691Z,1015.52
2017-02-08T12:47:19.416Z,1015.5
2017-02-08T12:48:29.139Z,1015.52
2017-02-08T12:49:38.426Z,1015.49
2017-02-08T12:50:48.199Z,1015.51
2017-02-08T12:51:57.950Z,1015.52
2017-02-08T12:53:08.010Z,1015.51
2017-02-08T12:54:17.947Z,1015.49
2017-02-08T12:55:29.868Z,1015.48
2017-02-08T12:56:40.893Z,1015.5
2017-02-08T12:57:52.303Z,1015.48
2017-02-08T12:59:02.768Z,1015.46
2017-02-08T13:00:13.177Z,1015.47
2017-02-08T13:01:23.098Z,1015.52
2017-02-08T13:02:33.623Z,1015.55
2017-02-08T13:03:44.049Z,1015.55
2017-02-08T13:04:53.973Z,1015.62
2017-02-08T13:06:04.895Z,1015.54
2017-02-08T13:07:15.724Z,1015.57
2017-02-08T13:08:25.505Z,1015.51
2017-02-08T13:09:35.668Z,1015.5
2017-02-08T13:10:44.954Z,1015.51
2017-02-08T13:11:54.255Z,1015.59
2017-02-08T13:13:04.422Z,1015.59
2017-02-08T13:14:13.963Z,1015.61
2017-02-08T13:15:23.693Z,1015.63
2017-02-08T13:16:33.859Z,1015.65
2017-02-08T13:17:43.148Z,1015.68
2017-02-08T13:18:52.864Z,1015.67
2017-02-08T13:20:02.638Z,1015.7
2017-02-08T13:21:11.927Z,1015.64
2017-02-08T13:22:21.212Z,1015.69
2017-02-08T13:23:30.930Z,1015.63
2017-02-08T13:24:40.647Z,1015.67
2017-02-08T13:25:49.976Z,1015.67
2017-02-08T13:26:59.698Z,1015.66
2017-02-08T13:28:08.986Z,1015.7
2017-02-08T13:29:19.156Z,1015.66
2017-02-08T13:30:28.445Z,1015.66
2017-02-08T13:31:38.424Z,1015.66
2017-02-08T13:32:48.593Z,1015.69
2017-02-08T13:33:58.763Z,1015.64
2017-02-08T13:35:08.501Z,1015.64
2017-02-08T13:36:18.309Z,1015.65
2017-02-08T13:37:27.639Z,1015.66
2017-02-08T13:38:37.280Z,1015.63
2017-02-08T13:39:46.985Z,1015.68
2017-02-08T13:40:57.601Z,1015.68
2017-02-08T13:42:07.779Z,1015.68
2017-02-08T13:43:18.476Z,1015.64
2017-02-08T13:44:28.637Z,1015.69
2017-02-08T13:45:38.858Z,1015.68
2017-02-08T13:46:49.546Z,1015.67
2017-02-08T13:47:59.973Z,1015.7
2017-02-08T13:49:09.898Z,1015.7
2017-02-08T13:50:20.339Z,1015.65
2017-02-08T13:51:31.178Z,1015.67
2017-02-08T13:52:40.457Z,1015.65
2017-02-08T13:53:50.839Z,1015.7
2017-02-08T13:55:00.572Z,1015.68
2017-02-08T13:56:10.301Z,1015.69
2017-02-08T13:57:20.516Z,1015.7
2017-02-08T13:58:29.801Z,1015.77
2017-02-08T13:59:39.525Z,1015.78
2017-02-08T14:00:49.694Z,1015.8
2017-02-08T14:01:59.866Z,1015.75
2017-02-08T14:03:10.513Z,1015.8
2017-02-08T14:04:21.117Z,1015.79
2017-02-08T14:05:30.840Z,1015.75
2017-02-08T14:06:40.553Z,1015.76
2017-02-08T14:07:50.801Z,1015.8
2017-02-08T14:09:00.674Z,1015.78